createdAt,value
2022-10-30T00:00:48.721Z,13.33
2022-10-30T00:03:16.745Z,13.31
2022-10-30T00:05:45.623Z,13.20
2022-10-30T00:08:13.786Z,13.28
2022-10-30T00:10:41.385Z,13.29
2022-10-30T00:13:08.688Z,13.22
2022-10-30T00:15:35.936Z,13.26
2022-10-30T00:18:03.199Z,13.25
2022-10-30T00:20:30.268Z,13.15
2022-10-30T00:22:57.381Z,13.22
2022-10-30T00:25:24.200Z,13.03
2022-10-30T00:27:50.828Z,13.16
2022-10-30T00:30:18.827Z,13.14
2022-10-30T00:32:45.567Z,13.07
2022-10-30T00:35:12.483Z,13.24
2022-10-30T00:37:39.551Z,13.28
2022-10-30T00:40:07.509Z,13.34
2022-10-30T00:42:34.250Z,13.12
2022-10-30T00:45:03.875Z,13.11
2022-10-30T00:47:40.939Z,13.20
2022-10-30T00:50:36.308Z,13.22
2022-10-30T00:53:08.947Z,13.06
2022-10-30T00:55:43.848Z,13.10
2022-10-30T00:58:15.414Z,13.05
2022-10-30T01:00:51.995Z,12.94
2022-10-30T01:03:21.848Z,12.76
2022-10-30T01:05:54.991Z,12.94
2022-10-30T01:08:21.880Z,13.00
2022-10-30T01:10:49.498Z,12.89
2022-10-30T01:13:20.737Z,13.12
2022-10-30T01:15:57.649Z,13.07
2022-10-30T01:18:38.800Z,13.01
2022-10-30T01:21:26.841Z,12.93
2022-10-30T01:24:07.160Z,12.89
2022-10-30T01:27:11.543Z,12.89
2022-10-30T01:29:59.930Z,12.87
2022-10-30T01:32:39.814Z,12.92
2022-10-30T01:35:33.487Z,12.98
2022-10-30T01:38:19.169Z,12.93
2022-10-30T01:40:48.579Z,12.87
2022-10-30T01:43:15.742Z,12.90
2022-10-30T01:45:54.070Z,12.86
2022-10-30T01:48:51.800Z,12.79
2022-10-30T01:51:42.956Z,12.73
2022-10-30T01:54:23.452Z,12.63
2022-10-30T01:56:57.237Z,12.61
2022-10-30T01:59:39.936Z,12.51
2022-10-30T02:02:08.471Z,12.51
2022-10-30T02:04:36.254Z,12.61
2022-10-30T02:07:03.382Z,12.46
2022-10-30T02:09:35.617Z,12.55
2022-10-30T02:12:03.133Z,12.46
2022-10-30T02:14:36.184Z,12.56
2022-10-30T02:17:06.885Z,12.61
2022-10-30T02:19:34.237Z,12.52
2022-10-30T02:22:03.114Z,12.32
2022-10-30T02:24:31.152Z,12.29
2022-10-30T02:26:58.929Z,12.29
2022-10-30T02:29:25.748Z,12.20
2022-10-30T02:31:52.445Z,11.94
2022-10-30T02:34:19.209Z,12.06
2022-10-30T02:36:45.905Z,12.08
2022-10-30T02:39:12.731Z,12.09
2022-10-30T02:41:39.373Z,12.05
2022-10-30T02:44:06.659Z,12.05
2022-10-30T02:46:34.176Z,11.88
2022-10-30T02:49:00.888Z,12.01
2022-10-30T02:51:27.705Z,12.03
2022-10-30T02:53:54.390Z,11.83
2022-10-30T02:56:21.059Z,11.88
2022-10-30T02:58:47.805Z,11.63
2022-10-30T03:01:17.850Z,11.85
2022-10-30T03:03:45.295Z,11.82
2022-10-30T03:06:15.564Z,11.78
2022-10-30T03:08:42.981Z,11.69
2022-10-30T03:11:12.473Z,11.78
2022-10-30T03:13:40.997Z,11.79
2022-10-30T03:16:21.821Z,11.79
2022-10-30T03:18:50.125Z,11.64
2022-10-30T03:21:19.139Z,11.73
2022-10-30T03:23:45.871Z,11.53
2022-10-30T03:26:12.866Z,11.60
2022-10-30T03:28:48.377Z,11.57
2022-10-30T03:31:17.730Z,11.46
2022-10-30T03:33:45.568Z,11.37
2022-10-30T03:36:14.163Z,11.38
2022-10-30T03:38:41.315Z,11.23
2022-10-30T03:41:09.676Z,11.38
2022-10-30T03:43:36.421Z,11.37
2022-10-30T03:46:03.435Z,11.37
2022-10-30T03:48:30.610Z,11.32
2022-10-30T03:50:59.559Z,11.38
2022-10-30T03:53:28.459Z,11.35
2022-10-30T03:56:00.800Z,11.32
2022-10-30T03:58:31.992Z,11.31
2022-10-30T04:01:05.925Z,11.30
2022-10-30T04:03:35.853Z,11.22
2022-10-30T04:06:02.978Z,11.05
2022-10-30T04:08:29.656Z,11.25
2022-10-30T04:10:57.552Z,11.21
2022-10-30T04:13:24.512Z,11.20
2022-10-30T04:15:56.018Z,11.23
2022-10-30T04:18:25.468Z,11.22
2022-10-30T04:20:59.546Z,11.25
2022-10-30T04:23:26.239Z,11.17
2022-10-30T04:25:53.602Z,11.16
2022-10-30T04:28:21.469Z,11.06
2022-10-30T04:30:48.695Z,11.12
2022-10-30T04:33:16.884Z,11.17
2022-10-30T04:35:43.875Z,11.09
2022-10-30T04:38:15.610Z,11.05
2022-10-30T04:40:44.503Z,10.96
2022-10-30T04:43:13.405Z,11.06
2022-10-30T04:45:41.186Z,10.99
2022-10-30T04:48:16.419Z,10.90
2022-10-30T04:50:44.000Z,10.81
2022-10-30T04:53:17.001Z,10.82
2022-10-30T04:55:46.051Z,10.82
2022-10-30T04:58:13.774Z,10.77
2022-10-30T05:00:43.254Z,10.83
2022-10-30T05:03:20.464Z,10.81
2022-10-30T05:05:56.087Z,10.50
2022-10-30T05:08:22.784Z,10.67
2022-10-30T05:10:49.505Z,10.67
2022-10-30T05:13:16.272Z,10.61
2022-10-30T05:15:43.119Z,10.67
2022-10-30T05:18:09.915Z,10.63
2022-10-30T05:20:36.645Z,10.71
2022-10-30T05:23:04.181Z,10.52
2022-10-30T05:25:31.323Z,10.60
2022-10-30T05:28:06.027Z,10.54
2022-10-30T05:30:39.520Z,10.58
2022-10-30T05:33:15.843Z,10.56
2022-10-30T05:35:42.740Z,10.53
2022-10-30T05:38:10.916Z,10.48
2022-10-30T05:40:38.067Z,10.54
2022-10-30T05:43:04.973Z,10.47
2022-10-30T05:45:32.716Z,10.39
2022-10-30T05:48:05.714Z,10.28
2022-10-30T05:50:39.229Z,10.19
2022-10-30T05:53:19.495Z,10.08
2022-10-30T05:55:46.187Z,10.15
2022-10-30T05:58:18.870Z,10.20
2022-10-30T06:00:46.337Z,10.22
2022-10-30T06:03:18.176Z,10.26
2022-10-30T06:05:46.733Z,10.41
2022-10-30T06:08:16.246Z,10.41
2022-10-30T06:10:44.028Z,10.28
2022-10-30T06:13:16.424Z,10.31
2022-10-30T06:15:54.623Z,10.22
2022-10-30T06:18:21.949Z,10.28
2022-10-30T06:20:54.929Z,10.06
2022-10-30T06:23:30.457Z,9.85
2022-10-30T06:26:07.895Z,9.89
2022-10-30T06:28:40.157Z,9.88
2022-10-30T06:31:09.943Z,10.01
2022-10-30T06:33:37.904Z,10.04
2022-10-30T06:36:04.988Z,10.11
2022-10-30T06:38:32.785Z,9.93
2022-10-30T06:41:00.071Z,10.06
2022-10-30T06:43:37.676Z,10.14
2022-10-30T06:46:09.655Z,10.29
2022-10-30T06:48:39.682Z,10.24
2022-10-30T06:51:06.429Z,10.13
2022-10-30T06:53:36.718Z,10.00
2022-10-30T06:56:23.381Z,9.97
2022-10-30T06:59:09.729Z,10.16
2022-10-30T07:01:44.985Z,10.15
2022-10-30T07:04:17.054Z,10.14
2022-10-30T07:06:44.521Z,9.81
2022-10-30T07:09:11.296Z,10.18
2022-10-30T07:11:40.124Z,10.26
2022-10-30T07:14:28.471Z,10.40
2022-10-30T07:17:12.860Z,10.47
2022-10-30T07:19:42.033Z,10.79
2022-10-30T07:22:08.820Z,10.96
2022-10-30T07:24:38.021Z,10.95
2022-10-30T07:27:16.622Z,11.01
2022-10-30T07:30:03.796Z,11.13
2022-10-30T07:32:40.606Z,11.24
2022-10-30T07:35:14.721Z,11.39
2022-10-30T07:38:04.783Z,11.47
2022-10-30T07:40:44.187Z,11.60
2022-10-30T07:43:29.775Z,12.13
2022-10-30T07:46:22.442Z,12.42
2022-10-30T07:49:15.010Z,12.64
2022-10-30T07:51:48.180Z,12.99
2022-10-30T07:54:15.629Z,13.54
2022-10-30T07:56:42.635Z,13.98
2022-10-30T07:59:27.784Z,14.27
2022-10-30T08:01:57.434Z,14.36
2022-10-30T08:04:45.747Z,14.67
2022-10-30T08:07:34.188Z,14.91
2022-10-30T08:10:01.366Z,15.12
2022-10-30T08:12:28.356Z,15.25
2022-10-30T08:14:55.429Z,15.46
2022-10-30T08:17:22.240Z,15.49
2022-10-30T08:19:49.632Z,15.78
2022-10-30T08:22:17.374Z,16.13
2022-10-30T08:24:48.757Z,16.34
2022-10-30T08:27:16.325Z,16.47
2022-10-30T08:29:43.016Z,16.60
2022-10-30T08:32:09.701Z,16.64
2022-10-30T08:34:54.853Z,16.84
2022-10-30T08:37:21.808Z,17.00
2022-10-30T08:39:48.500Z,17.23
2022-10-30T08:42:51.076Z,17.17
2022-10-30T08:45:18.223Z,17.59
2022-10-30T08:47:58.191Z,17.96
2022-10-30T08:50:27.646Z,18.22
2022-10-30T08:52:54.915Z,18.38
2022-10-30T08:55:22.178Z,18.52
2022-10-30T08:57:49.341Z,18.76
2022-10-30T09:00:16.183Z,18.92
2022-10-30T09:03:02.224Z,19.17
2022-10-30T09:05:32.307Z,19.40
2022-10-30T09:08:17.275Z,19.50
2022-10-30T09:11:06.913Z,19.70
2022-10-30T09:13:33.703Z,19.65
2022-10-30T09:16:03.048Z,19.84
2022-10-30T09:18:32.602Z,19.92
2022-10-30T09:21:03.035Z,20.12
2022-10-30T09:23:34.165Z,20.17
2022-10-30T09:26:23.544Z,20.25
2022-10-30T09:28:55.817Z,20.03
2022-10-30T09:31:41.163Z,20.30
2022-10-30T09:34:13.455Z,20.59
2022-10-30T09:36:46.340Z,20.74
2022-10-30T09:39:13.272Z,20.89
2022-10-30T09:42:01.912Z,20.85
2022-10-30T09:44:56.533Z,20.70
2022-10-30T09:47:33.300Z,20.75
2022-10-30T09:50:12.055Z,20.75
2022-10-30T09:53:00.699Z,20.57
2022-10-30T09:55:35.519Z,20.72
2022-10-30T09:58:14.648Z,20.74
2022-10-30T10:00:57.845Z,20.70
2022-10-30T10:06:46.802Z,20.85
2022-10-30T10:09:37.792Z,21.28
2022-10-30T10:12:46.649Z,21.56
2022-10-30T10:15:39.418Z,21.62
2022-10-30T10:18:16.317Z,21.50
2022-10-30T10:20:47.098Z,21.84
2022-10-30T10:23:50.132Z,21.71
2022-10-30T10:26:28.504Z,21.62
2022-10-30T10:28:58.235Z,21.69
2022-10-30T10:31:33.367Z,21.86
2022-10-30T10:34:28.011Z,22.13
2022-10-30T10:37:20.849Z,22.48
2022-10-30T10:40:03.224Z,22.79
2022-10-30T10:42:36.641Z,23.16
2022-10-30T10:45:18.305Z,23.49
2022-10-30T10:48:06.170Z,23.82
2022-10-30T10:50:42.141Z,23.96
2022-10-30T10:53:33.602Z,24.20
2022-10-30T10:56:01.487Z,23.79
2022-10-30T10:58:51.558Z,23.47
2022-10-30T11:01:23.676Z,23.14
2022-10-30T11:03:54.787Z,23.31
2022-10-30T11:06:27.167Z,23.43
2022-10-30T11:09:02.446Z,23.59
2022-10-30T11:11:29.203Z,23.98
2022-10-30T11:13:56.211Z,23.86
2022-10-30T11:16:25.720Z,23.80
2022-10-30T11:18:58.092Z,23.68
2022-10-30T11:21:26.882Z,23.67
2022-10-30T11:23:53.957Z,23.82
2022-10-30T11:26:20.611Z,24.15
2022-10-30T11:28:59.881Z,24.07
2022-10-30T11:31:34.267Z,24.16
2022-10-30T11:34:39.451Z,24.36
2022-10-30T11:37:30.570Z,24.40
2022-10-30T11:40:04.155Z,24.24
2022-10-30T11:42:31.299Z,24.07
2022-10-30T11:44:58.177Z,24.50
2022-10-30T11:50:06.123Z,24.97
2022-10-30T11:52:40.070Z,25.05
2022-10-30T11:55:31.813Z,25.21
2022-10-30T11:57:59.586Z,24.68
2022-10-30T12:00:31.916Z,24.39
2022-10-30T12:03:03.631Z,24.22
2022-10-30T12:05:33.155Z,24.34
2022-10-30T12:08:08.690Z,24.60
2022-10-30T12:11:01.875Z,24.80
2022-10-30T12:13:36.476Z,24.96
2022-10-30T12:16:16.502Z,24.91
2022-10-30T12:18:58.269Z,25.17
2022-10-30T12:21:26.890Z,25.48
2022-10-30T12:23:57.331Z,25.70
2022-10-30T12:26:25.899Z,25.32
2022-10-30T12:29:00.575Z,24.97
2022-10-30T12:31:36.961Z,24.90
2022-10-30T12:34:09.427Z,24.91
2022-10-30T12:36:45.577Z,25.21
2022-10-30T12:39:12.243Z,25.32
2022-10-30T12:42:26.860Z,25.62
2022-10-30T12:45:12.313Z,25.86
2022-10-30T12:47:49.577Z,25.71
2022-10-30T12:50:19.837Z,25.74
2022-10-30T12:52:58.210Z,25.49
2022-10-30T12:55:34.236Z,25.25
2022-10-30T12:58:22.016Z,24.74
2022-10-30T13:01:11.700Z,24.62
2022-10-30T13:03:46.282Z,24.59
2022-10-30T13:06:19.399Z,24.71
2022-10-30T13:09:11.198Z,24.73
2022-10-30T13:12:02.471Z,24.76
2022-10-30T13:14:42.705Z,24.80
2022-10-30T13:17:12.199Z,24.82
2022-10-30T13:19:44.986Z,24.78
2022-10-30T13:22:24.001Z,24.64
2022-10-30T13:24:59.220Z,24.51
2022-10-30T13:27:45.362Z,24.74
2022-10-30T13:30:21.929Z,24.79
2022-10-30T13:32:54.686Z,24.74
2022-10-30T13:35:33.020Z,24.56
2022-10-30T13:38:27.493Z,24.63
2022-10-30T13:41:04.230Z,24.36
2022-10-30T13:43:53.737Z,24.45
2022-10-30T13:46:32.349Z,24.31
2022-10-30T13:49:23.430Z,24.36
2022-10-30T13:52:19.764Z,24.36
2022-10-30T13:55:02.047Z,24.11
2022-10-30T13:57:37.265Z,23.96
2022-10-30T14:00:21.601Z,23.70
2022-10-30T14:03:22.123Z,23.56
2022-10-30T14:05:52.505Z,23.58
2022-10-30T14:08:37.846Z,23.57
2022-10-30T14:11:11.884Z,23.49
2022-10-30T14:13:46.316Z,23.44
2022-10-30T14:16:43.545Z,23.34
2022-10-30T14:19:15.290Z,23.28
2022-10-30T14:21:55.711Z,23.23
2022-10-30T14:24:34.732Z,23.28
2022-10-30T14:27:04.440Z,23.19
2022-10-30T14:29:36.701Z,23.24
2022-10-30T14:32:15.634Z,23.23
2022-10-30T14:34:52.377Z,23.05
2022-10-30T14:37:39.017Z,23.16
2022-10-30T14:40:50.525Z,23.08
2022-10-30T14:43:29.082Z,22.93
2022-10-30T14:46:10.422Z,22.65
2022-10-30T14:48:51.784Z,22.47
2022-10-30T14:51:25.057Z,22.51
2022-10-30T14:54:02.887Z,22.42
2022-10-30T14:56:45.164Z,22.27
2022-10-30T14:59:14.878Z,22.12
2022-10-30T15:01:56.937Z,21.98
2022-10-30T15:04:45.276Z,21.84
2022-10-30T15:07:51.294Z,21.61
2022-10-30T15:10:21.908Z,21.48
2022-10-30T15:13:19.123Z,21.16
2022-10-30T15:15:46.487Z,21.22
2022-10-30T15:18:19.712Z,21.08
2022-10-30T15:20:54.748Z,20.80
2022-10-30T15:23:21.398Z,20.72
2022-10-30T15:25:52.424Z,20.45
2022-10-30T15:28:22.779Z,20.55
2022-10-30T15:31:25.335Z,20.47
2022-10-30T15:33:54.325Z,20.37
2022-10-30T15:36:22.232Z,20.19
2022-10-30T15:39:11.021Z,19.96
2022-10-30T15:41:43.861Z,19.82
2022-10-30T15:44:14.524Z,19.64
2022-10-30T15:46:45.335Z,19.43
2022-10-30T15:49:19.352Z,19.35
2022-10-30T15:51:47.495Z,19.24
2022-10-30T15:54:21.125Z,19.15
2022-10-30T15:57:27.062Z,19.06
2022-10-30T15:59:37.203Z,18.87
2022-10-30T16:02:21.195Z,18.92
2022-10-30T16:04:48.350Z,18.82
2022-10-30T16:07:22.020Z,18.51
2022-10-30T16:10:02.776Z,18.56
2022-10-30T16:12:34.346Z,18.43
2022-10-30T16:15:07.634Z,18.07
2022-10-30T16:17:35.049Z,18.14
2022-10-30T16:20:04.377Z,18.00
2022-10-30T16:22:37.398Z,17.90
2022-10-30T16:25:07.657Z,17.85
2022-10-30T16:27:34.438Z,17.77
2022-10-30T16:30:02.070Z,17.65
2022-10-30T16:32:31.122Z,17.62
2022-10-30T16:34:59.649Z,17.52
2022-10-30T16:37:37.814Z,17.47
2022-10-30T16:40:22.617Z,17.33
2022-10-30T16:42:54.689Z,17.23
2022-10-30T16:45:24.496Z,17.12
2022-10-30T16:47:58.251Z,16.95
2022-10-30T16:50:33.381Z,16.87
2022-10-30T16:53:20.605Z,16.88
2022-10-30T16:55:47.699Z,16.66
2022-10-30T16:58:16.491Z,16.69
2022-10-30T17:00:50.894Z,16.61
2022-10-30T17:03:22.975Z,16.42
2022-10-30T17:06:01.597Z,16.37
2022-10-30T17:08:39.539Z,16.27
2022-10-30T17:11:15.534Z,16.23
2022-10-30T17:13:54.395Z,16.14
2022-10-30T17:16:25.504Z,15.98
2022-10-30T17:18:54.707Z,15.84
2022-10-30T17:21:25.103Z,15.54
2022-10-30T17:23:54.548Z,15.53
2022-10-30T17:26:21.382Z,15.48
2022-10-30T17:28:48.855Z,15.45
2022-10-30T17:31:18.283Z,15.45
2022-10-30T17:34:04.348Z,15.44
2022-10-30T17:36:31.024Z,15.44
2022-10-30T17:38:57.756Z,15.41
2022-10-30T17:41:24.594Z,15.18
2022-10-30T17:43:53.367Z,15.26
2022-10-30T17:46:20.835Z,15.24
2022-10-30T17:48:48.271Z,15.20
2022-10-30T17:51:17.280Z,15.18
2022-10-30T17:53:44.271Z,15.15
2022-10-30T17:56:19.355Z,15.09
2022-10-30T17:58:46.207Z,15.03
2022-10-30T18:01:25.200Z,14.98
2022-10-30T18:03:55.075Z,14.96
2022-10-30T18:06:27.059Z,14.87
2022-10-30T18:08:54.543Z,14.78
2022-10-30T18:11:23.909Z,14.74
2022-10-30T18:13:52.321Z,14.71
2022-10-30T18:16:19.832Z,14.72
2022-10-30T18:18:47.943Z,14.63
2022-10-30T18:21:16.875Z,14.63
2022-10-30T18:23:52.329Z,14.54
2022-10-30T18:26:23.739Z,14.42
2022-10-30T18:28:50.893Z,14.37
2022-10-30T18:31:20.967Z,14.36
2022-10-30T18:33:48.206Z,14.17
2022-10-30T18:36:25.396Z,14.27
2022-10-30T18:38:52.793Z,14.12
2022-10-30T18:41:21.418Z,14.22
2022-10-30T18:43:48.298Z,14.08
2022-10-30T18:46:16.700Z,14.01
2022-10-30T18:48:44.422Z,14.01
2022-10-30T18:51:17.058Z,14.11
2022-10-30T18:53:51.385Z,14.09
2022-10-30T18:56:23.544Z,14.02
2022-10-30T18:58:54.848Z,13.98
2022-10-30T19:01:26.067Z,14.00
2022-10-30T19:03:52.990Z,13.97
2022-10-30T19:06:24.246Z,14.05
2022-10-30T19:08:51.117Z,13.97
2022-10-30T19:11:24.603Z,13.96
2022-10-30T19:13:53.054Z,13.91
2022-10-30T19:16:20.228Z,13.84
2022-10-30T19:18:48.367Z,13.80
2022-10-30T19:21:21.758Z,13.77
2022-10-30T19:23:48.709Z,13.76
2022-10-30T19:26:16.207Z,13.60
2022-10-30T19:28:44.068Z,13.58
2022-10-30T19:31:14.631Z,13.61
2022-10-30T19:33:41.400Z,13.56
2022-10-30T19:36:28.434Z,13.60
2022-10-30T19:38:56.033Z,13.52
2022-10-30T19:41:24.804Z,13.34
2022-10-30T19:43:52.786Z,13.40
2022-10-30T19:46:19.832Z,13.31
2022-10-30T19:49:01.850Z,13.16
2022-10-30T19:51:28.830Z,13.21
2022-10-30T19:53:56.035Z,13.30
2022-10-30T19:56:23.266Z,13.29
2022-10-30T19:58:50.532Z,13.30
2022-10-30T20:01:17.582Z,13.28
2022-10-30T20:03:44.534Z,13.26
2022-10-30T20:06:12.427Z,13.21
2022-10-30T20:08:39.340Z,12.99
2022-10-30T20:11:06.074Z,13.00
2022-10-30T20:13:33.483Z,13.08
2022-10-30T20:16:02.886Z,12.94
2022-10-30T20:18:31.697Z,12.85
2022-10-30T20:21:01.055Z,12.91
2022-10-30T20:23:28.716Z,12.87
2022-10-30T20:26:01.531Z,12.85
2022-10-30T20:28:35.341Z,12.87
2022-10-30T20:31:02.471Z,12.83
2022-10-30T20:33:29.607Z,12.62
2022-10-30T20:35:56.350Z,12.65
2022-10-30T20:38:31.614Z,12.59
2022-10-30T20:41:03.393Z,12.44
2022-10-30T20:43:31.935Z,12.57
2022-10-30T20:46:00.241Z,12.49
2022-10-30T20:48:28.630Z,12.44
2022-10-30T20:51:00.045Z,12.44
2022-10-30T20:53:27.779Z,12.41
2022-10-30T20:55:54.720Z,12.42
2022-10-30T20:58:21.822Z,12.40
2022-10-30T21:00:48.667Z,12.31
2022-10-30T21:03:16.262Z,12.23
2022-10-30T21:05:45.700Z,12.30
2022-10-30T21:08:14.176Z,12.21
2022-10-30T21:10:41.950Z,12.17
2022-10-30T21:13:10.706Z,12.11
2022-10-30T21:15:42.522Z,12.03
2022-10-30T21:18:10.453Z,12.01
2022-10-30T21:20:37.418Z,11.81
2022-10-30T21:23:04.684Z,11.85
2022-10-30T21:25:32.402Z,11.95
2022-10-30T21:28:00.195Z,11.79
2022-10-30T21:30:27.468Z,11.83
2022-10-30T21:32:54.343Z,11.75
2022-10-30T21:35:21.234Z,11.63
2022-10-30T21:37:48.106Z,11.77
2022-10-30T21:40:14.869Z,11.61
2022-10-30T21:42:41.554Z,11.72
2022-10-30T21:45:09.232Z,11.72
2022-10-30T21:47:35.891Z,11.75
2022-10-30T21:50:06.409Z,11.71
2022-10-30T21:52:34.807Z,11.70
2022-10-30T21:55:01.530Z,11.72
2022-10-30T21:57:29.183Z,11.64
2022-10-30T21:59:58.723Z,11.77
2022-10-30T22:02:31.217Z,11.76
2022-10-30T22:04:57.870Z,11.68
2022-10-30T22:07:24.590Z,11.55
2022-10-30T22:09:51.312Z,11.58
2022-10-30T22:12:17.926Z,11.59
2022-10-30T22:14:44.540Z,11.61
2022-10-30T22:17:12.668Z,11.48
2022-10-30T22:19:39.378Z,11.41
2022-10-30T22:22:06.809Z,11.49
2022-10-30T22:24:33.503Z,11.13
2022-10-30T22:27:00.371Z,11.30
2022-10-30T22:29:27.132Z,11.34
2022-10-30T22:31:53.814Z,11.32
2022-10-30T22:34:20.522Z,11.30
2022-10-30T22:36:47.225Z,11.18
2022-10-30T22:39:14.295Z,11.06
2022-10-30T22:41:41.603Z,11.16
2022-10-30T22:44:12.737Z,11.13
2022-10-30T22:46:39.948Z,11.06
2022-10-30T22:49:07.480Z,11.07
2022-10-30T22:51:35.991Z,11.01
2022-10-30T22:54:06.568Z,11.04
2022-10-30T22:56:35.485Z,10.98
2022-10-30T22:59:06.071Z,10.94
2022-10-30T23:01:34.724Z,10.85
2022-10-30T23:04:03.177Z,10.82
2022-10-30T23:06:31.306Z,10.91
2022-10-30T23:09:01.027Z,10.87
2022-10-30T23:11:28.732Z,10.88
2022-10-30T23:13:55.915Z,10.86
2022-10-30T23:16:24.950Z,10.82
2022-10-30T23:18:54.490Z,10.63
2022-10-30T23:21:23.535Z,10.74
2022-10-30T23:23:50.467Z,10.66
2022-10-30T23:26:26.243Z,10.67
2022-10-30T23:28:54.746Z,10.66
2022-10-30T23:31:27.264Z,10.73
2022-10-30T23:33:56.433Z,10.73
2022-10-30T23:36:23.656Z,10.69
2022-10-30T23:38:55.648Z,10.67
2022-10-30T23:41:24.237Z,10.65
2022-10-30T23:44:02.234Z,10.58
2022-10-30T23:46:29.395Z,10.49
2022-10-30T23:48:56.784Z,10.50
2022-10-30T23:51:23.941Z,10.50
2022-10-30T23:53:50.800Z,10.45
2022-10-30T23:56:18.289Z,10.50
2022-10-30T23:58:49.870Z,10.48
